TimeEST,TemperatureF,Dew PointF,Humidity,Sea Level PressureIn,VisibilityMPH,Wind Direction,Wind SpeedMPH,Gust SpeedMPH,PrecipitationIn,Events,Conditions,WindDirDegrees,DateUTC
12:14 AM,35.2,28.8,77,29.93,10.0,WSW,15.0,21.9,N/A,,Clear,240,2013-01-08 05:14:00
12:35 AM,35.2,29.1,78,29.93,10.0,WSW,17.3,23.0,N/A,,Clear,240,2013-01-08 05:35:00
12:54 AM,35.2,29.3,79,29.94,10.0,WSW,13.8,21.9,N/A,,Clear,240,2013-01-08 05:54:00
1:14 AM,35.2,29.3,79,29.94,10.0,WSW,10.4,20.7,N/A,,Scattered Clouds,240,2013-01-08 06:14:00
1:35 AM,35.2,29.3,79,29.95,10.0,WSW,15.0,23.0,N/A,,Scattered Clouds,240,2013-01-08 06:35:00
1:54 AM,35.2,29.8,81,29.95,10.0,WSW,12.7,23.0,N/A,,Clear,240,2013-01-08 06:54:00
2:15 AM,35.2,30.0,81,29.96,10.0,WSW,10.4,18.4,N/A,,Mostly Cloudy,240,2013-01-08 07:15:00
2:35 AM,35.2,29.8,81,29.97,10.0,WSW,11.5,18.4,N/A,,Overcast,240,2013-01-08 07:35:00
2:54 AM,35.2,30.0,81,29.98,10.0,WSW,12.7,18.4,N/A,,Overcast,240,2013-01-08 07:54:00
3:15 AM,35.2,30.2,82,29.98,10.0,SW,13.8,18.4,N/A,,Overcast,230,2013-01-08 08:15:00
3:35 AM,35.2,30.4,82,29.98,10.0,WSW,13.8,20.7,N/A,,Overcast,240,2013-01-08 08:35:00
3:54 AM,35.2,30.7,84,29.99,10.0,SW,11.5,19.6,N/A,,Overcast,230,2013-01-08 08:54:00
4:15 AM,35.2,30.7,84,29.99,10.0,SW,12.7,18.4,N/A,,Overcast,220,2013-01-08 09:15:00
4:34 AM,35.2,30.9,84,29.99,10.0,SW,11.5,-,N/A,,Overcast,230,2013-01-08 09:34:00
4:54 AM,35.2,31.1,85,29.99,10.0,SW,11.5,16.1,N/A,,Mostly Cloudy,230,2013-01-08 09:54:00
5:15 AM,35.2,31.1,85,30.00,10.0,SW,10.4,17.3,N/A,,Mostly Cloudy,230,2013-01-08 10:15:00
5:34 AM,35.2,31.1,85,30.00,10.0,SW,11.5,18.4,N/A,,Overcast,220,2013-01-08 10:34:00
5:54 AM,33.3,29.7,87,30.01,10.0,SSW,6.9,-,N/A,,Overcast,200,2013-01-08 10:54:00
6:15 AM,32.9,29.5,87,30.02,10.0,SSW,8.1,-,N/A,,Overcast,210,2013-01-08 11:15:00
6:34 AM,34.3,30.9,87,30.02,10.0,SW,6.9,16.1,N/A,,Overcast,220,2013-01-08 11:34:00
6:55 AM,34.7,31.1,87,30.03,10.0,SSW,8.1,-,N/A,,Overcast,200,2013-01-08 11:55:00
7:15 AM,34.2,30.4,86,30.04,10.0,SSW,9.2,-,N/A,,Overcast,200,2013-01-08 12:15:00
7:34 AM,34.2,30.4,86,30.05,10.0,South,6.9,-,N/A,,Overcast,190,2013-01-08 12:34:00
7:55 AM,32.9,29.1,86,30.06,10.0,South,4.6,-,N/A,,Overcast,190,2013-01-08 12:55:00
8:15 AM,32.9,29.1,86,30.07,10.0,South,5.8,-,N/A,,Overcast,190,2013-01-08 13:15:00
8:34 AM,32.9,29.1,86,30.07,7.0,SSW,8.1,-,N/A,,Overcast,210,2013-01-08 13:34:00
9:15 AM,32.9,29.3,87,30.09,7.0,South,4.6,-,N/A,,Clear,190,2013-01-08 14:15:00
9:34 AM,32.9,29.1,86,30.09,7.0,South,5.8,-,N/A,,Clear,190,2013-01-08 14:34:00
9:55 AM,32.9,29.3,87,30.11,7.0,SSW,5.8,-,N/A,,Clear,210,2013-01-08 14:55:00
10:15 AM,34.2,30.2,85,30.11,7.0,SSW,6.9,-,N/A,,Scattered Clouds,210,2013-01-08 15:15:00
10:34 AM,35.2,30.6,83,30.11,7.0,SSW,5.8,-,N/A,,Clear,210,2013-01-08 15:34:00
10:55 AM,35.2,30.2,82,30.11,7.0,SW,5.8,-,N/A,,Clear,220,2013-01-08 15:55:00
11:15 AM,35.6,30.0,80,30.11,10.0,SW,6.9,-,N/A,,Clear,230,2013-01-08 16:15:00
11:34 AM,37.4,31.1,78,30.11,10.0,SSW,5.8,-,N/A,,Clear,210,2013-01-08 16:34:00
11:55 AM,37.6,30.9,77,30.11,10.0,SW,5.8,-,N/A,,Clear,230,2013-01-08 16:55:00
12:15 PM,37.6,30.7,76,30.10,10.0,WSW,4.6,-,N/A,,Clear,240,2013-01-08 17:15:00
12:34 PM,37.6,30.0,74,30.10,10.0,West,3.5,-,N/A,,Clear,270,2013-01-08 17:34:00
12:55 PM,37.6,29.8,74,30.09,10.0,West,3.5,-,N/A,,Clear,260,2013-01-08 17:55:00
1:15 PM,37.6,29.7,73,30.09,10.0,Calm,Calm,-,N/A,,Clear,0,2013-01-08 18:15:00
1:34 PM,37.9,29.3,71,30.09,10.0,West,3.5,-,N/A,,Clear,280,2013-01-08 18:34:00
1:55 PM,38.5,29.3,70,30.09,10.0,Calm,Calm,-,N/A,,Clear,0,2013-01-08 18:55:00
2:15 PM,38.7,29.3,69,30.09,10.0,Calm,Calm,-,N/A,,Clear,0,2013-01-08 19:15:00
2:55 PM,38.8,29.1,68,30.09,10.0,Calm,Calm,-,N/A,,Clear,0,2013-01-08 19:55:00
3:15 PM,38.5,28.9,69,30.08,10.0,Calm,Calm,-,N/A,,Clear,0,2013-01-08 20:15:00
3:34 PM,38.8,28.8,67,30.08,10.0,Calm,Calm,-,N/A,,Clear,0,2013-01-08 20:34:00
3:55 PM,38.8,28.4,66,30.09,10.0,Calm,Calm,-,N/A,,Clear,0,2013-01-08 20:55:00
4:14 PM,38.7,28.9,68,30.09,10.0,Calm,Calm,-,N/A,,Clear,0,2013-01-08 21:14:00
4:35 PM,38.8,28.8,67,30.08,10.0,Calm,Calm,-,N/A,,Clear,0,2013-01-08 21:35:00
4:55 PM,37.4,29.1,72,30.08,10.0,Calm,Calm,-,N/A,,Clear,0,2013-01-08 21:55:00
5:14 PM,35.2,28.8,77,30.08,10.0,Calm,Calm,-,N/A,,Clear,0,2013-01-08 22:14:00
5:35 PM,32.9,27.5,81,30.07,10.0,Calm,Calm,-,N/A,,Clear,0,2013-01-08 22:35:00
5:55 PM,36.3,28.9,75,30.07,10.0,SSE,4.6,-,N/A,,Clear,160,2013-01-08 22:55:00
6:14 PM,37.6,29.3,72,30.07,10.0,South,5.8,-,N/A,,Clear,170,2013-01-08 23:14:00
6:35 PM,35.8,28.4,75,30.07,10.0,South,3.5,-,N/A,,Clear,170,2013-01-08 23:35:00
6:55 PM,35.2,28.4,76,30.06,10.0,South,5.8,-,N/A,,Clear,180,2013-01-08 23:55:00
7:14 PM,35.2,29.1,78,30.05,10.0,South,5.8,-,N/A,,Clear,170,2013-01-09 00:14:00
7:35 PM,35.2,28.8,77,30.04,10.0,Calm,Calm,-,N/A,,Clear,0,2013-01-09 00:35:00
7:55 PM,35.1,28.6,77,30.03,10.0,ENE,5.8,-,N/A,,Clear,60,2013-01-09 00:55:00
8:14 PM,34.7,28.9,79,30.02,10.0,ENE,6.9,-,N/A,,Clear,70,2013-01-09 01:14:00
8:35 PM,35.2,28.9,78,30.01,10.0,East,5.8,-,N/A,,Clear,80,2013-01-09 01:35:00
8:55 PM,35.2,28.6,77,30.01,10.0,East,4.6,-,N/A,,Clear,90,2013-01-09 01:55:00
9:14 PM,33.8,28.0,79,29.99,10.0,ENE,5.8,-,N/A,,Clear,70,2013-01-09 02:14:00
9:35 PM,32.9,27.3,80,29.99,10.0,East,4.6,-,N/A,,Clear,80,2013-01-09 02:35:00
9:54 PM,32.9,27.5,81,29.98,10.0,East,3.5,-,N/A,,Clear,80,2013-01-09 02:54:00
10:14 PM,34.2,27.5,77,29.98,10.0,SE,3.5,-,N/A,,Clear,140,2013-01-09 03:14:00
10:35 PM,34.7,27.5,75,29.97,10.0,South,5.8,-,N/A,,Clear,170,2013-01-09 03:35:00
11:14 PM,34.9,27.1,73,29.95,10.0,South,8.1,-,N/A,,Clear,170,2013-01-09 04:14:00
11:35 PM,35.1,26.6,71,29.94,10.0,Calm,Calm,-,N/A,,Clear,0,2013-01-09 04:35:00